createdAt,value
2024-02-08T00:01:51.938Z,1.80
2024-02-08T00:04:22.708Z,4.20
2024-02-08T00:06:52.512Z,2.13
2024-02-08T00:09:20.929Z,2.20
2024-02-08T00:11:48.688Z,1.83
2024-02-08T00:14:15.759Z,1.90
2024-02-08T00:16:42.877Z,2.35
2024-02-08T00:19:09.904Z,1.83
2024-02-08T00:21:38.672Z,1.80
2024-02-08T00:24:06.032Z,1.90
2024-02-08T00:26:33.182Z,2.10
2024-02-08T00:29:01.627Z,2.08
2024-02-08T00:31:28.435Z,2.40
2024-02-08T00:33:55.509Z,1.88
2024-02-08T00:36:23.219Z,1.63
2024-02-08T00:38:50.059Z,1.85
2024-02-08T00:41:16.881Z,2.00
2024-02-08T00:43:43.621Z,2.08
2024-02-08T00:46:30.456Z,2.45
2024-02-08T00:48:57.291Z,2.10
2024-02-08T00:51:24.819Z,2.00
2024-02-08T00:54:40.509Z,2.58
2024-02-08T01:04:14.928Z,1.95
2024-02-08T01:07:19.845Z,2.00
2024-02-08T01:09:51.806Z,1.85
2024-02-08T01:18:43.954Z,2.00
2024-02-08T01:21:16.903Z,1.88
2024-02-08T01:23:53.361Z,1.58
2024-02-08T01:26:32.289Z,1.98
2024-02-08T01:33:06.490Z,1.70
2024-02-08T01:35:35.233Z,2.20
2024-02-08T01:38:03.674Z,1.30
2024-02-08T01:40:33.351Z,1.50
2024-02-08T01:43:01.809Z,1.48
2024-02-08T01:45:32.669Z,1.55
2024-02-08T01:48:01.898Z,1.80
2024-02-08T01:50:34.228Z,1.65
2024-02-08T01:53:01.653Z,1.40
2024-02-08T01:55:35.582Z,1.50
2024-02-08T01:58:26.311Z,1.50
2024-02-08T02:01:05.402Z,1.83
2024-02-08T02:03:36.247Z,2.10
2024-02-08T02:06:11.295Z,1.75
2024-02-08T02:08:41.010Z,1.80
2024-02-08T02:11:50.346Z,2.10
2024-02-08T02:14:19.088Z,1.98
2024-02-08T02:16:58.607Z,2.08
2024-02-08T02:19:32.977Z,1.80
2024-02-08T02:22:22.723Z,2.28
2024-02-08T02:25:22.168Z,2.72
2024-02-08T02:28:04.812Z,2.50
2024-02-08T02:30:44.550Z,2.30
2024-02-08T02:33:22.846Z,2.15
2024-02-08T02:35:58.430Z,2.00
2024-02-08T02:39:03.021Z,1.98
2024-02-08T02:48:12.039Z,2.20
2024-02-08T02:50:53.194Z,2.53
2024-02-08T02:53:21.349Z,1.92
2024-02-08T02:55:48.743Z,1.92
2024-02-08T02:58:22.409Z,1.67
2024-02-08T03:00:49.830Z,2.15
2024-02-08T03:03:17.138Z,2.13
2024-02-08T03:05:48.345Z,1.90
2024-02-08T03:08:22.116Z,1.50
2024-02-08T03:10:58.633Z,1.80
2024-02-08T03:13:27.873Z,2.08
2024-02-08T03:15:56.865Z,1.90
2024-02-08T03:18:25.184Z,1.52
2024-02-08T03:20:52.328Z,1.90
2024-02-08T03:23:19.726Z,1.80
2024-02-08T03:25:46.910Z,1.92
2024-02-08T03:28:15.202Z,2.03
2024-02-08T03:30:44.679Z,1.98
2024-02-08T03:33:18.332Z,2.10
2024-02-08T03:35:54.899Z,2.38
2024-02-08T03:38:22.113Z,2.22
2024-02-08T03:40:50.577Z,2.25
2024-02-08T03:43:25.252Z,1.90
2024-02-08T03:46:01.142Z,1.70
2024-02-08T03:48:30.233Z,1.92
2024-02-08T03:51:03.015Z,1.65
2024-02-08T03:53:38.634Z,1.85
2024-02-08T03:58:34.698Z,1.75
2024-02-08T04:01:03.083Z,2.00
2024-02-08T04:03:55.478Z,2.08
2024-02-08T04:06:39.650Z,1.90
2024-02-08T04:09:11.693Z,1.40
2024-02-08T04:12:22.878Z,1.50
2024-02-08T04:15:10.475Z,1.88
2024-02-08T04:17:55.923Z,1.70
2024-02-08T04:20:41.192Z,1.60
2024-02-08T04:23:28.568Z,2.10
2024-02-08T04:26:27.705Z,1.95
2024-02-08T04:29:15.703Z,1.40
2024-02-08T04:32:03.106Z,1.70
2024-02-08T04:34:48.552Z,1.90
2024-02-08T04:37:35.892Z,1.70
2024-02-08T04:40:26.325Z,1.45
2024-02-08T04:43:11.893Z,1.33
2024-02-08T04:45:57.191Z,1.67
2024-02-08T04:48:44.425Z,2.15
2024-02-08T04:51:31.539Z,1.80
2024-02-08T04:54:04.140Z,1.63
2024-02-08T04:56:33.861Z,1.98
2024-02-08T04:59:20.265Z,2.00
2024-02-08T05:01:48.320Z,2.70
2024-02-08T05:04:15.536Z,2.00
2024-02-08T05:06:48.055Z,2.00
2024-02-08T05:09:22.153Z,1.90
2024-02-08T05:11:53.765Z,2.30
2024-02-08T05:14:24.075Z,2.47
2024-02-08T05:16:57.164Z,1.98
2024-02-08T05:20:18.773Z,2.15
2024-02-08T05:22:46.337Z,2.35
2024-02-08T05:25:14.434Z,2.22
2024-02-08T05:27:41.317Z,2.30
2024-02-08T05:30:08.915Z,2.70
2024-02-08T05:32:37.130Z,2.83
2024-02-08T05:35:06.062Z,2.83
2024-02-08T05:37:33.379Z,2.95
2024-02-08T05:40:01.854Z,2.38
2024-02-08T05:42:29.134Z,2.00
2024-02-08T05:45:18.209Z,2.88
2024-02-08T05:47:51.776Z,2.35
2024-02-08T05:50:26.162Z,2.42
2024-02-08T05:52:53.204Z,2.50
2024-02-08T05:55:23.177Z,2.25
2024-02-08T05:57:50.114Z,2.60
2024-02-08T06:00:33.751Z,2.47
2024-02-08T06:03:04.751Z,3.00
2024-02-08T06:05:34.095Z,4.13
2024-02-08T06:08:05.053Z,4.53
2024-02-08T06:10:47.114Z,3.70
2024-02-08T06:13:18.761Z,3.60
2024-02-08T06:15:54.460Z,4.50
2024-02-08T06:18:27.180Z,3.67
2024-02-08T06:21:01.489Z,3.40
2024-02-08T06:23:28.806Z,3.45
2024-02-08T06:26:13.676Z,3.40
2024-02-08T06:29:02.103Z,3.65
2024-02-08T06:31:35.002Z,4.13
2024-02-08T06:34:11.770Z,4.65
2024-02-08T06:37:01.446Z,4.10
2024-02-08T06:39:31.572Z,4.50
2024-02-08T06:42:31.827Z,4.43
2024-02-08T06:45:21.655Z,5.63
2024-02-08T06:48:27.956Z,6.18
2024-02-08T06:51:16.748Z,5.47
2024-02-08T06:54:04.081Z,3.92
2024-02-08T06:56:55.069Z,3.13
2024-02-08T06:59:41.388Z,2.67
2024-02-08T07:02:28.151Z,3.03
2024-02-08T07:05:13.820Z,2.05
2024-02-08T07:08:01.265Z,2.33
2024-02-08T07:10:47.129Z,2.35
2024-02-08T07:13:32.871Z,2.55
2024-02-08T07:16:19.929Z,2.00
2024-02-08T07:19:07.722Z,2.85
2024-02-08T07:21:55.376Z,2.80
2024-02-08T07:24:41.435Z,2.15
2024-02-08T07:27:26.958Z,3.30
2024-02-08T07:30:14.040Z,2.92
2024-02-08T07:33:04.693Z,3.05
2024-02-08T07:35:51.930Z,3.03
2024-02-08T07:38:46.577Z,2.80
2024-02-08T07:41:13.658Z,3.28
2024-02-08T07:43:46.162Z,3.10
2024-02-08T07:46:18.159Z,2.45
2024-02-08T07:48:45.769Z,2.20
2024-02-08T07:51:17.426Z,2.22
2024-02-08T07:53:53.273Z,2.45
2024-02-08T07:56:24.983Z,2.05
2024-02-08T07:59:07.634Z,1.83
2024-02-08T08:01:45.702Z,1.92
2024-02-08T08:04:14.373Z,2.30
2024-02-08T08:06:50.812Z,2.67
2024-02-08T08:09:23.402Z,2.28
2024-02-08T08:11:53.999Z,2.47
2024-02-08T08:14:40.954Z,2.22
2024-02-08T08:19:45.729Z,2.65
2024-02-08T08:22:23.009Z,2.85
2024-02-08T08:25:14.207Z,2.90
2024-02-08T08:27:49.214Z,2.90
2024-02-08T08:30:31.949Z,3.05
2024-02-08T08:33:01.611Z,2.95
2024-02-08T08:35:35.254Z,2.85
2024-02-08T08:38:20.371Z,2.40
2024-02-08T08:40:51.138Z,2.00
2024-02-08T08:43:22.416Z,1.92
2024-02-08T08:46:13.849Z,1.60
2024-02-08T08:48:44.515Z,1.98
2024-02-08T08:51:13.569Z,2.85
2024-02-08T08:54:20.721Z,2.25
2024-02-08T08:56:59.540Z,1.80
2024-02-08T08:59:32.721Z,1.85
2024-02-08T09:02:08.754Z,1.77
2024-02-08T09:04:58.665Z,3.30
2024-02-08T09:11:40.219Z,2.00
2024-02-08T09:14:18.486Z,1.67
2024-02-08T09:17:24.125Z,1.60
2024-02-08T09:20:24.634Z,1.23
2024-02-08T09:23:05.442Z,2.05
2024-02-08T09:25:47.632Z,2.13
2024-02-08T09:28:26.520Z,1.83
2024-02-08T09:31:06.663Z,1.98
2024-02-08T09:33:50.323Z,1.73
2024-02-08T09:36:17.447Z,1.70
2024-02-08T09:38:48.417Z,2.03
2024-02-08T09:41:27.264Z,2.03
2024-02-08T09:44:07.921Z,2.65
2024-02-08T09:46:36.074Z,1.92
2024-02-08T09:49:19.143Z,1.90
2024-02-08T09:51:58.101Z,2.15
2024-02-08T09:54:33.392Z,2.08
2024-02-08T09:57:23.844Z,2.08
2024-02-08T10:00:12.027Z,2.42
2024-02-08T10:02:55.391Z,2.10
2024-02-08T10:05:42.224Z,2.63
2024-02-08T10:08:28.561Z,2.88
2024-02-08T10:11:22.471Z,2.55
2024-02-08T10:14:20.032Z,2.22
2024-02-08T10:16:49.465Z,2.00
2024-02-08T10:19:49.535Z,1.77
2024-02-08T10:22:28.448Z,2.13
2024-02-08T10:24:58.230Z,2.10
2024-02-08T10:27:25.042Z,2.67
2024-02-08T10:29:51.776Z,2.80
2024-02-08T10:32:21.601Z,3.83
2024-02-08T10:34:53.991Z,4.28
2024-02-08T10:37:40.138Z,4.07
2024-02-08T10:40:26.843Z,4.60
2024-02-08T10:43:00.283Z,3.72
2024-02-08T10:45:33.829Z,3.30
2024-02-08T10:48:04.703Z,3.90
2024-02-08T10:50:41.455Z,2.65
2024-02-08T10:53:17.763Z,2.95
2024-02-08T10:55:54.336Z,2.72
2024-02-08T10:58:54.814Z,3.22
2024-02-08T11:01:34.734Z,3.47
2024-02-08T11:04:19.717Z,3.85
2024-02-08T11:07:10.336Z,3.65
2024-02-08T11:09:37.454Z,4.53
2024-02-08T11:12:10.506Z,4.20
2024-02-08T11:14:44.499Z,3.00
2024-02-08T11:17:25.485Z,3.80
2024-02-08T11:20:05.493Z,3.05
2024-02-08T11:22:42.105Z,3.95
2024-02-08T11:25:35.121Z,4.25
2024-02-08T11:28:26.443Z,3.42
2024-02-08T11:30:55.326Z,3.03
2024-02-08T11:33:34.565Z,3.47
2024-02-08T11:36:15.446Z,4.15
2024-02-08T11:38:49.058Z,3.38
2024-02-08T11:41:21.866Z,3.30
2024-02-08T11:44:48.618Z,2.60
2024-02-08T11:47:21.400Z,2.77
2024-02-08T11:50:02.838Z,1.98
2024-02-08T11:52:33.538Z,2.05
2024-02-08T11:55:11.245Z,2.50
2024-02-08T11:57:42.384Z,2.00
2024-02-08T12:00:17.382Z,2.00
2024-02-08T12:03:12.798Z,3.05
2024-02-08T12:05:42.884Z,1.95
2024-02-08T12:08:13.510Z,2.08
2024-02-08T12:10:49.277Z,2.05
2024-02-08T12:13:27.108Z,2.85
2024-02-08T12:15:58.235Z,2.58
2024-02-08T12:18:58.215Z,2.00
2024-02-08T12:21:53.719Z,2.03
2024-02-08T12:24:28.415Z,2.50
2024-02-08T12:27:26.916Z,2.55
2024-02-08T12:29:58.336Z,3.15
2024-02-08T12:32:31.906Z,3.00
2024-02-08T12:35:31.289Z,2.72
2024-02-08T12:38:00.207Z,2.15
2024-02-08T12:40:34.353Z,2.38
2024-02-08T12:43:03.296Z,2.78
2024-02-08T12:45:33.145Z,2.60
2024-02-08T12:48:08.302Z,2.33
2024-02-08T12:51:06.908Z,3.10
2024-02-08T12:53:34.699Z,2.13
2024-02-08T12:56:14.103Z,2.20
2024-02-08T12:58:43.460Z,2.25
2024-02-08T13:01:16.828Z,2.05
2024-02-08T13:03:49.592Z,2.10
2024-02-08T13:06:17.574Z,2.55
2024-02-08T13:08:47.197Z,2.47
2024-02-08T13:11:23.231Z,2.40
2024-02-08T13:16:21.630Z,2.42
2024-02-08T13:18:58.043Z,2.33
2024-02-08T13:21:26.972Z,2.55
2024-02-08T13:23:59.074Z,2.50
2024-02-08T13:26:50.832Z,1.92
2024-02-08T13:29:44.021Z,2.38
2024-02-08T13:32:11.620Z,1.98
2024-02-08T13:34:41.983Z,2.47
2024-02-08T13:37:20.665Z,2.03
2024-02-08T13:39:53.122Z,1.83
2024-02-08T13:42:25.600Z,1.85
2024-02-08T13:44:59.660Z,2.08
2024-02-08T13:47:27.406Z,2.40
2024-02-08T13:49:59.678Z,2.10
2024-02-08T13:52:41.939Z,2.35
2024-02-08T13:55:24.521Z,1.75
2024-02-08T13:57:53.395Z,2.67
2024-02-08T14:00:33.741Z,2.13
2024-02-08T14:03:02.236Z,1.88
2024-02-08T14:05:31.604Z,2.22
2024-02-08T14:07:58.785Z,2.90
2024-02-08T14:10:33.200Z,3.33
2024-02-08T14:13:07.752Z,2.55
2024-02-08T14:15:38.999Z,2.22
2024-02-08T14:18:28.965Z,2.70
2024-02-08T14:21:06.908Z,3.03
2024-02-08T14:23:42.751Z,2.72
2024-02-08T14:26:23.039Z,2.28
2024-02-08T14:32:38.000Z,3.00
2024-02-08T14:35:18.173Z,3.13
2024-02-08T14:37:47.580Z,3.10
2024-02-08T14:40:32.615Z,3.38
2024-02-08T14:43:10.964Z,2.90
2024-02-08T14:45:53.047Z,2.50
2024-02-08T14:48:28.675Z,3.95
2024-02-08T14:51:06.759Z,2.50
2024-02-08T14:53:34.213Z,2.38
2024-02-08T14:56:03.299Z,2.28
2024-02-08T14:59:03.526Z,2.42
2024-02-08T15:02:33.676Z,3.17
2024-02-08T15:05:49.641Z,3.42
2024-02-08T15:08:30.183Z,3.70
2024-02-08T15:11:27.416Z,3.30
2024-02-08T15:14:28.950Z,3.20
2024-02-08T15:17:09.250Z,2.83
2024-02-08T15:19:52.601Z,3.83
2024-02-08T15:22:31.109Z,4.10
2024-02-08T15:25:06.111Z,4.45
2024-02-08T15:27:54.017Z,4.93
2024-02-08T15:31:27.864Z,3.28
2024-02-08T15:33:33.126Z,3.78
2024-02-08T15:36:11.776Z,3.03
2024-02-08T15:38:56.751Z,2.65
2024-02-08T15:41:45.136Z,3.10
2024-02-08T15:44:20.609Z,4.85
2024-02-08T15:46:53.891Z,3.70
2024-02-08T15:49:30.288Z,3.70
2024-02-08T15:52:07.948Z,4.10
2024-02-08T15:54:42.676Z,3.70
2024-02-08T15:57:16.293Z,3.38
2024-02-08T15:59:48.400Z,4.35
2024-02-08T16:02:21.288Z,4.43
2024-02-08T16:04:52.602Z,4.10
2024-02-08T16:07:37.163Z,4.40
2024-02-08T16:10:32.353Z,4.53
2024-02-08T16:13:15.647Z,4.78
2024-02-08T16:16:17.023Z,6.10
2024-02-08T16:20:07.958Z,7.72
2024-02-08T16:22:49.221Z,4.53
2024-02-08T16:25:18.760Z,4.82
2024-02-08T16:28:04.105Z,4.68
2024-02-08T16:43:58.110Z,6.63
2024-02-08T16:46:40.592Z,4.40
2024-02-08T16:49:18.645Z,4.50
2024-02-08T16:51:53.092Z,4.68
2024-02-08T16:54:57.582Z,4.63
2024-02-08T16:57:43.716Z,3.83
2024-02-08T17:00:29.876Z,4.07
2024-02-08T17:07:10.505Z,5.50
2024-02-08T17:13:46.613Z,7.97
2024-02-08T17:21:53.792Z,9.38
2024-02-08T17:24:54.142Z,11.00
2024-02-08T17:27:58.413Z,10.75
2024-02-08T17:30:48.781Z,9.98
2024-02-08T17:33:28.221Z,10.13
2024-02-08T17:40:33.844Z,7.80
2024-02-08T17:46:09.165Z,8.32
2024-02-08T17:48:38.711Z,7.72
2024-02-08T17:51:15.194Z,7.63
2024-02-08T17:53:48.949Z,7.60
2024-02-08T18:00:04.027Z,6.57
2024-02-08T18:03:04.050Z,8.77
2024-02-08T18:05:37.543Z,7.20
2024-02-08T18:11:15.247Z,7.05
2024-02-08T18:13:48.726Z,7.80
2024-02-08T18:16:27.515Z,8.18
2024-02-08T18:20:28.031Z,7.13
2024-02-08T18:22:58.951Z,6.50
2024-02-08T18:25:52.185Z,6.45
2024-02-08T18:29:02.155Z,4.88
2024-02-08T18:31:39.537Z,5.40
2024-02-08T18:39:09.959Z,5.22
2024-02-08T18:41:54.239Z,6.35
2024-02-08T18:44:34.443Z,5.55
2024-02-08T18:47:42.884Z,5.10
2024-02-08T18:50:54.535Z,5.05
2024-02-08T18:56:27.743Z,4.05
2024-02-08T19:02:05.474Z,4.63
2024-02-08T19:04:45.971Z,6.88
2024-02-08T19:24:11.867Z,5.80
2024-02-08T19:27:35.780Z,6.88
2024-02-08T19:30:33.950Z,6.90
2024-02-08T19:33:35.847Z,7.18
2024-02-08T19:36:38.783Z,7.30
2024-02-08T19:39:34.234Z,5.70
2024-02-08T19:42:01.588Z,6.03
2024-02-08T19:44:28.679Z,6.03
2024-02-08T19:47:14.439Z,5.93
2024-02-08T19:50:27.499Z,6.18
2024-02-08T19:53:39.996Z,6.32
2024-02-08T20:00:19.029Z,7.97
2024-02-08T20:02:52.344Z,7.70
2024-02-08T20:05:34.408Z,9.90
2024-02-08T20:08:15.132Z,12.05
2024-02-08T20:10:42.976Z,12.65
2024-02-08T20:13:16.282Z,14.27
2024-02-08T20:15:52.441Z,13.48
2024-02-08T20:18:23.073Z,13.57
2024-02-08T20:20:53.967Z,13.88
2024-02-08T20:23:42.355Z,11.75
2024-02-08T20:26:38.069Z,12.43
2024-02-08T20:29:09.146Z,12.18
2024-02-08T20:31:43.839Z,12.32
2024-02-08T20:34:50.116Z,11.52
2024-02-08T20:37:25.971Z,11.77
2024-02-08T20:40:36.042Z,10.20
2024-02-08T20:46:55.399Z,11.30
2024-02-08T20:52:48.068Z,8.55
2024-02-08T20:56:26.372Z,6.80
2024-02-08T20:59:02.248Z,5.95
2024-02-08T21:01:41.066Z,6.35
2024-02-08T21:04:26.914Z,5.75
2024-02-08T21:08:06.794Z,6.43
2024-02-08T21:10:53.818Z,6.55
2024-02-08T21:13:39.409Z,5.97
2024-02-08T21:16:35.287Z,6.38
2024-02-08T21:19:10.378Z,6.32
2024-02-08T21:21:39.378Z,6.38
2024-02-08T21:24:06.612Z,6.90
2024-02-08T21:26:39.678Z,7.10
2024-02-08T21:29:18.299Z,6.53
2024-02-08T21:31:57.721Z,6.75
2024-02-08T21:34:27.726Z,6.65
2024-02-08T21:37:11.448Z,7.10
2024-02-08T21:40:01.854Z,7.60
2024-02-08T21:42:31.097Z,7.70
2024-02-08T21:45:19.599Z,6.95
2024-02-08T21:47:49.629Z,6.88
2024-02-08T21:50:20.114Z,8.15
2024-02-08T21:52:51.287Z,6.45
2024-02-08T21:55:28.849Z,6.80
2024-02-08T21:58:05.521Z,7.50
2024-02-08T22:00:34.042Z,6.65
2024-02-08T22:03:02.182Z,6.72
2024-02-08T22:05:32.211Z,6.72
2024-02-08T22:07:59.744Z,6.70
2024-02-08T22:10:27.820Z,5.63
2024-02-08T22:13:07.446Z,6.25
2024-02-08T22:15:46.786Z,6.00
2024-02-08T22:18:16.245Z,7.00
2024-02-08T22:20:47.471Z,7.13
2024-02-08T22:23:14.732Z,6.65
2024-02-08T22:25:42.913Z,6.97
2024-02-08T22:28:12.005Z,7.90
2024-02-08T22:30:39.387Z,9.35
2024-02-08T22:33:09.981Z,8.48
2024-02-08T22:35:40.556Z,8.95
2024-02-08T22:38:13.788Z,8.32
2024-02-08T22:40:41.261Z,8.73
2024-02-08T22:43:08.219Z,8.57
2024-02-08T22:45:38.133Z,10.10
2024-02-08T22:48:06.038Z,10.40
2024-02-08T22:50:34.923Z,11.00
2024-02-08T22:53:03.033Z,11.02
2024-02-08T22:55:30.230Z,10.20
2024-02-08T22:58:16.254Z,10.85
2024-02-08T23:00:52.178Z,10.63
2024-02-08T23:03:25.692Z,10.98
2024-02-08T23:05:56.391Z,10.35
2024-02-08T23:08:24.805Z,9.35
2024-02-08T23:10:53.266Z,8.93
2024-02-08T23:13:23.516Z,9.25
2024-02-08T23:15:50.778Z,8.93
2024-02-08T23:18:23.305Z,9.60
2024-02-08T23:20:55.157Z,9.93
2024-02-08T23:23:26.419Z,9.13
2024-02-08T23:25:56.864Z,9.75
2024-02-08T23:28:27.001Z,8.98
2024-02-08T23:30:59.604Z,9.20
2024-02-08T23:33:26.750Z,8.57
2024-02-08T23:35:53.832Z,7.93
2024-02-08T23:38:22.185Z,9.85
2024-02-08T23:40:49.640Z,9.07
2024-02-08T23:43:17.070Z,9.90
2024-02-08T23:45:48.325Z,8.52
2024-02-08T23:48:15.946Z,8.13
2024-02-08T23:50:46.184Z,7.95
2024-02-08T23:53:15.279Z,8.40
2024-02-08T23:55:42.448Z,8.77
2024-02-08T23:58:12.435Z,7.55
